Flight Track Log - Related Links

Times and Time Zones

All times are in EDT time to prevent confusion due to time zone crossing. See the N109EA flight status page for this flight to view local times or setup timezone preferences in your user account.

Time Position Orientation Groundspeed Altitude Reporting Facility
EDT Latitude Longitude Course Direction KTS MPH feet Rate Location/Type
Thu 05:35:53 PM 39.3500 -84.4667 90° East 97 112 2,300  Level Cincinnati TRACON
Thu 05:36:53 PM 39.3333 -84.4333 123° Southeast 101 116 3,200 835 Climbing Cincinnati TRACON
Thu 05:37:12 PM 39.3275 -84.4397 220° Southwest 96 110 3,400 889 Climbing Indianapolis Center
Thu 05:38:14 PM 39.3131 -84.4064 119° Southeast 102 117 4,400 1,016 Climbing Indianapolis Center
Thu 05:39:16 PM 39.2953 -84.3667 120° Southeast 106 122 5,500 823 Climbing Indianapolis Center
Thu 05:40:18 PM 39.2786 -84.3292 120° Southeast 111 128 6,100 532 Climbing Indianapolis Center
Thu 05:41:20 PM 39.2622 -84.2878 117° Southeast 123 142 6,600 435 Climbing Indianapolis Center
Thu 05:42:22 PM 39.2425 -84.2442 120° Southeast 135 155 7,000 435 Climbing Indianapolis Center
Thu 05:43:24 PM 39.2236 -84.2017 120° Southeast 136 157 7,500 532 Climbing Indianapolis Center
Thu 05:44:26 PM 39.2058 -84.1614 120° Southeast 131 151 8,100 532 Climbing Indianapolis Center
Thu 05:45:28 PM 39.1872 -84.1269 125° Southeast 119 137 8,600 387 Climbing Indianapolis Center
Thu 05:46:30 PM 39.1625 -84.0825 126° Southeast 131 151 8,900 96 Climbing Indianapolis Center
Thu 05:47:33 PM 39.1364 -84.0389 128° Southeast 150 173 8,800 -48 Descending Indianapolis Center
Thu 05:48:35 PM 39.1103 -83.9944 127° Southeast 153 176 8,800 48 Level Indianapolis Center
Thu 05:49:37 PM 39.0883 -83.9492 122° Southeast 150 173 8,900 48 Climbing Indianapolis Center
Thu 05:50:39 PM 39.0672 -83.9011 119° Southeast 152 175 8,900  Level Indianapolis Center
Thu 05:51:41 PM 39.0467 -83.8553 120° Southeast 148 170 8,900  Level Indianapolis Center
Thu 05:52:43 PM 39.0261 -83.8086 120° Southeast 148 170 8,900  Level Indianapolis Center
Thu 05:53:45 PM 39.0019 -83.7550 120° Southeast 148 170 8,900  Level Indianapolis Center
Thu 05:54:47 PM 38.9808 -83.7103 121° Southeast 145 167 8,900  Level Indianapolis Center
Thu 05:55:49 PM 38.9603 -83.6644 120° Southeast 147 169 8,900  Level Indianapolis Center
Thu 05:56:51 PM 38.9392 -83.6175 120° Southeast 149 171 8,900  Level Indianapolis Center
Thu 05:57:53 PM 38.9181 -83.5717 121° Southeast 149 171 8,900  Level Indianapolis Center
Thu 05:58:55 PM 38.8983 -83.5264 119° Southeast 144 166 8,900  Level Indianapolis Center
Thu 05:59:57 PM 38.8775 -83.4814 121° Southeast 145 167 8,900  Level Indianapolis Center
Thu 06:00:59 PM 38.8531 -83.4297 121° Southeast 143 165 8,900  Level Indianapolis Center
Thu 06:02:01 PM 38.8339 -83.3861 119° Southeast 141 162 8,900  Level Indianapolis Center
Thu 06:03:03 PM 38.8142 -83.3428 120° Southeast 139 160 8,900  Level Indianapolis Center
Thu 06:04:05 PM 38.7928 -83.2978 121° Southeast 145 167 8,900 -194 Level Indianapolis Center
Thu 06:05:07 PM 38.7719 -83.2511 120° Southeast 150 173 8,500 -484 Descending Indianapolis Center
Thu 06:06:09 PM 38.7489 -83.2000 120° Southeast 161 185 7,900 -532 Descending Indianapolis Center
Thu 06:07:11 PM 38.7250 -83.1486 121° Southeast 161 185 7,400 -528 Descending Indianapolis Center
Thu 06:08:14 PM 38.7031 -83.1008 120° Southeast 157 181 6,800 -624 Descending Indianapolis Center
Thu 06:09:16 PM 38.6761 -83.0417 120° Southeast 160 184 6,100 -629 Descending Indianapolis Center
Thu 06:10:18 PM 38.6531 -82.9944 122° Southeast 157 181 5,500 -532 Descending Indianapolis Center
Thu 06:11:20 PM 38.6333 -82.9478 118° Southeast 160 184 5,000 -290 Descending Indianapolis Center
Thu 06:12:22 PM 38.6083 -82.8961 122° Southeast 146 168 4,900 -48 Descending Indianapolis Center
Thu 06:13:24 PM 38.5872 -82.8508 121° Southeast 148 170 4,900  Level Indianapolis Center
Thu 06:14:26 PM 38.5661 -82.8044 120° Southeast 150 173 4,900 -290 Level Indianapolis Center
Thu 06:15:28 PM 38.5436 -82.7572 121° Southeast 155 178 4,300 -629 Descending Indianapolis Center
Thu 06:16:30 PM 38.5231 -82.7117 120° Southeast 151 174 3,600 -581 Descending Indianapolis Center
Thu 06:17:32 PM 38.4989 -82.6608 121° Southeast 150 173 3,100 -484 Descending Indianapolis Center
Thu 06:19:00 PM 38.4683 -82.6013 123° Southeast  Level FlightAware Approximate
Thu 06:26:00 PM 38.4193 -82.4943 113° Southeast  Level Estimated

Login

Don't have an account? Register now (free) for customized features, flight alerts, and more!